Fenix, Brazil
Current Conditions -  °F | °C
As of 7:00 AM on Friday 19 Dec 2014 (Local Time) from SBMG Reporting Station
Clear Clear  
Wind Chill: 75°   Ceiling: Unl
Heat Index: 75°   Visibility: 6mi
Dew Point: 68°   Wind: 5mph
Humidity: 78%   Direction: 40°NE
Pressure: 29.8"   Gusts: NA
Location:  23.92°S, 51.98°W
Report Text: SBMG 190900Z 04004KT CAVOK 24/20 Q1009
Loading
Personal Weather Stations






























Interactive Weather Map New forecast layout! Learn more

10-Day Weather Forecast

Advertisements
Track Severe Weather on mobile